Time;durP1;ratioP1;P1;durP2;ratioP2;P2;SDS_P1;SDS_P2;PMS_P1;PMS_P2;Temp;Humidity;BMP_temperature;BMP_pressure;BME280_temperature;BME280_humidity;BME280_pressure;Samples;Min_cycle;Max_cycle;Signal;HPM_P1;HPM_P2
2021/07/17 00:00:50;;;;;;;;;;;16.70;88.50;;;;;;5034482;28;19955;-77
2021/07/17 00:03:15;;;;;;;;;;;16.60;88.90;;;;;;5049547;28;19909;-77
2021/07/17 00:05:41;;;;;;;;;;;16.60;89.10;;;;;;5034125;28;19932;-77
2021/07/17 00:08:06;;;;;;;;;;;16.60;88.80;;;;;;5033056;28;19961;-77
2021/07/17 00:10:47;;;;;;;;;;;16.40;90.00;;;;;;5034274;28;19913;-77
2021/07/17 00:13:13;;;;;;;;;;;16.30;90.10;;;;;;5034286;28;20304;-77
2021/07/17 00:15:39;;;;;;;;;;;16.30;90.30;;;;;;5034024;28;19915;-76
2021/07/17 00:18:05;;;;;;;;;;;16.10;90.80;;;;;;5032676;28;20011;-77
2021/07/17 00:20:31;;;;;;;;;;;16.10;90.80;;;;;;5033977;28;19935;-76
2021/07/17 00:22:56;;;;;;;;;;;16.20;90.70;;;;;;5034009;28;19921;-76
2021/07/17 00:25:22;;;;;;;;;;;16.10;90.80;;;;;;5034007;28;19913;-76
2021/07/17 00:27:48;;;;;;;;;;;16.00;91.30;;;;;;5033913;28;19909;-77
2021/07/17 00:30:15;;;;;;;;;;;16.00;91.40;;;;;;5033901;28;19916;-77
2021/07/17 00:32:41;;;;;;;;;;;15.90;91.90;;;;;;5033786;28;19963;-78
2021/07/17 00:35:07;;;;;;;;;;;15.90;91.80;;;;;;5033680;28;19920;-76
2021/07/17 00:37:33;;;;;;;;;;;15.80;92.10;;;;;;5033894;28;19909;-76
2021/07/17 00:40:06;;;;;;;;;;;15.60;92.60;;;;;;5033915;28;19909;-77
2021/07/17 00:42:32;;;;;;;;;;;15.90;92.30;;;;;;5033641;28;19959;-76
2021/07/17 00:44:58;;;;;;;;;;;15.90;92.30;;;;;;5033874;28;20309;-77
2021/07/17 00:47:23;;;;;;;;;;;15.80;92.60;;;;;;5034036;28;19963;-77
2021/07/17 00:49:49;;;;;;;;;;;15.70;92.70;;;;;;5033613;28;19909;-76
2021/07/17 00:52:15;;;;;;;;;;;15.70;92.80;;;;;;5033636;28;20262;-77
2021/07/17 00:54:41;;;;;;;;;;;15.70;92.80;;;;;;5033458;28;20282;-76
2021/07/17 00:57:08;;;;;;;;;;;15.60;93.00;;;;;;5033711;28;19916;-78
2021/07/17 00:59:35;;;;;;;;;;;15.60;93.10;;;;;;5033470;28;19909;-76
2021/07/17 01:02:01;;;;;;;;;;;15.60;93.40;;;;;;5033502;28;19910;-77
2021/07/17 01:04:27;;;;;;;;;;;15.70;93.40;;;;;;5033502;28;20410;-76
2021/07/17 01:06:53;;;;;;;;;;;15.70;93.60;;;;;;5048742;28;20297;-77
2021/07/17 01:09:19;;;;;;;;;;;15.80;93.60;;;;;;5033192;28;19921;-76
2021/07/17 01:11:44;;;;;;;;;;;15.90;93.30;;;;;;5033588;28;19913;-78
2021/07/17 01:14:10;;;;;;;;;;;16.10;92.70;;;;;;5033445;28;20017;-76
2021/07/17 01:16:36;;;;;;;;;;;16.20;92.50;;;;;;5033389;28;20008;-76
2021/07/17 01:19:02;;;;;;;;;;;16.10;92.50;;;;;;5035607;28;19957;-78
2021/07/17 01:21:28;;;;;;;;;;;16.00;92.40;;;;;;5037211;28;19913;-77
2021/07/17 01:23:54;;;;;;;;;;;15.70;93.00;;;;;;5037136;28;19959;-76
2021/07/17 01:26:19;;;;;;;;;;;15.80;93.00;;;;;;5037140;28;20335;-77
2021/07/17 01:28:45;;;;;;;;;;;15.60;93.80;;;;;;5037055;28;20447;-77
2021/07/17 01:31:12;;;;;;;;;;;15.60;94.30;;;;;;5037051;28;20007;-77
2021/07/17 01:33:39;;;;;;;;;;;15.70;95.20;;;;;;5037115;28;20465;-77
2021/07/17 01:36:05;;;;;;;;;;;15.50;95.90;;;;;;5036919;28;19909;-76
2021/07/17 01:38:31;;;;;;;;;;;15.50;96.50;;;;;;5036927;28;19959;-77
2021/07/17 01:40:56;;;;;;;;;;;15.50;96.90;;;;;;5036884;28;20282;-77
2021/07/17 01:43:22;;;;;;;;;;;15.70;96.90;;;;;;5036779;28;19937;-76
2021/07/17 01:45:48;;;;;;;;;;;15.50;97.30;;;;;;5036790;28;19909;-77
2021/07/17 01:48:14;;;;;;;;;;;15.60;97.50;;;;;;5036714;28;19917;-76
2021/07/17 01:50:41;;;;;;;;;;;15.50;97.70;;;;;;5052052;28;19909;-77
2021/07/17 01:53:08;;;;;;;;;;;15.50;98.10;;;;;;5036654;28;19909;-78
2021/07/17 01:55:34;;;;;;;;;;;15.40;98.50;;;;;;5036522;28;19909;-77
2021/07/17 01:57:59;;;;;;;;;;;15.30;98.90;;;;;;5036855;28;19917;-77
2021/07/17 02:00:25;;;;;;;;;;;15.40;98.90;;;;;;5036467;28;19909;-77
2021/07/17 02:02:51;;;;;;;;;;;15.40;98.90;;;;;;5036429;28;19909;-77
2021/07/17 02:05:17;;;;;;;;;;;15.40;99.00;;;;;;5036410;28;19909;-77
2021/07/17 02:07:44;;;;;;;;;;;15.50;98.70;;;;;;5036576;28;19928;-78
2021/07/17 02:10:14;;;;;;;;;;;15.40;99.00;;;;;;5036345;28;20345;-76
2021/07/17 02:12:54;;;;;;;;;;;15.30;99.50;;;;;;5036286;28;19909;-77
2021/07/17 02:15:19;;;;;;;;;;;15.30;99.60;;;;;;5036259;28;20270;-77
2021/07/17 02:17:46;;;;;;;;;;;15.50;99.40;;;;;;5036158;28;19910;-77
2021/07/17 02:20:11;;;;;;;;;;;15.70;98.80;;;;;;5034902;28;19909;-77
2021/07/17 02:22:37;;;;;;;;;;;15.60;99.00;;;;;;5036384;28;19916;-77
2021/07/17 02:25:05;;;;;;;;;;;15.60;98.50;;;;;;5035947;28;19913;-77
2021/07/17 02:27:31;;;;;;;;;;;15.70;98.40;;;;;;5036083;28;19913;-77
2021/07/17 02:29:57;;;;;;;;;;;15.70;98.10;;;;;;5034568;28;19909;-77
2021/07/17 02:32:22;;;;;;;;;;;15.50;98.50;;;;;;5036029;28;19920;-78
2021/07/17 02:34:48;;;;;;;;;;;15.50;98.30;;;;;;5035788;28;20019;-76
2021/07/17 02:37:14;;;;;;;;;;;15.60;98.10;;;;;;5035878;28;19992;-76
2021/07/17 02:39:40;;;;;;;;;;;15.70;97.10;;;;;;5035762;28;20280;-77
2021/07/17 02:42:06;;;;;;;;;;;15.50;97.10;;;;;;5035762;28;19909;-76
2021/07/17 02:44:31;;;;;;;;;;;15.30;97.30;;;;;;5035984;28;19909;-76
2021/07/17 02:46:57;;;;;;;;;;;15.50;96.90;;;;;;5035787;28;19909;-78
2021/07/17 02:49:23;;;;;;;;;;;15.60;96.40;;;;;;5035515;28;19912;-77
2021/07/17 02:51:48;;;;;;;;;;;15.40;96.80;;;;;;5036003;28;19955;-77
2021/07/17 02:54:14;;;;;;;;;;;15.00;97.60;;;;;;5035520;28;19920;-77
2021/07/17 02:56:39;;;;;;;;;;;15.00;98.00;;;;;;5035669;28;19954;-78
2021/07/17 02:59:05;;;;;;;;;;;15.10;97.60;;;;;;5035499;28;19964;-77
2021/07/17 03:01:31;;;;;;;;;;;15.20;97.30;;;;;;5050758;28;19931;-77
2021/07/17 03:03:56;;;;;;;;;;;15.30;97.00;;;;;;5035306;28;20396;-77
2021/07/17 03:06:22;;;;;;;;;;;15.30;97.10;;;;;;5035544;28;19913;-76
2021/07/17 03:08:47;;;;;;;;;;;15.20;97.70;;;;;;5034739;28;19925;-77
2021/07/17 03:11:13;;;;;;;;;;;15.20;97.40;;;;;;5035192;28;19909;-76
2021/07/17 03:13:38;;;;;;;;;;;15.10;97.10;;;;;;5035061;28;20012;-77
2021/07/17 03:16:04;;;;;;;;;;;15.10;97.20;;;;;;5035445;28;19909;-78
2021/07/17 03:18:30;;;;;;;;;;;15.10;97.20;;;;;;5034942;28;20281;-77
2021/07/17 03:20:55;;;;;;;;;;;15.10;97.60;;;;;;5035203;28;19913;-77
2021/07/17 03:23:21;;;;;;;;;;;15.10;97.70;;;;;;5034873;28;19909;-78
2021/07/17 03:25:47;;;;;;;;;;;15.00;97.70;;;;;;5050190;28;19916;-78
2021/07/17 03:28:12;;;;;;;;;;;15.10;97.70;;;;;;5034870;28;19913;-77
2021/07/17 03:30:38;;;;;;;;;;;15.20;97.10;;;;;;5034853;28;19955;-76
2021/07/17 03:33:04;;;;;;;;;;;15.30;96.40;;;;;;5050045;28;20285;-76
2021/07/17 03:35:29;;;;;;;;;;;15.10;96.50;;;;;;5034730;28;19909;-77
2021/07/17 03:37:55;;;;;;;;;;;15.10;96.60;;;;;;5034613;28;19909;-76
2021/07/17 03:40:21;;;;;;;;;;;15.00;97.00;;;;;;5034607;28;19909;-77
2021/07/17 03:42:46;;;;;;;;;;;15.10;96.90;;;;;;5049704;28;20004;-76
2021/07/17 03:45:12;;;;;;;;;;;14.90;97.00;;;;;;5034541;28;20340;-77
2021/07/17 03:47:37;;;;;;;;;;;14.70;97.60;;;;;;5034487;28;20297;-77
2021/07/17 03:50:04;;;;;;;;;;;14.80;97.10;;;;;;5034459;28;19955;-77
2021/07/17 03:52:30;;;;;;;;;;;14.80;97.10;;;;;;5034411;28;19909;-77
2021/07/17 03:54:55;;;;;;;;;;;14.80;97.10;;;;;;5034272;28;19923;-77
2021/07/17 03:57:21;;;;;;;;;;;14.50;97.70;;;;;;5034286;28;19916;-77
2021/07/17 03:59:46;;;;;;;;;;;14.60;97.70;;;;;;5034288;28;20000;-77
2021/07/17 04:02:12;;;;;;;;;;;14.50;97.00;;;;;;5049565;28;20444;-76
2021/07/17 04:04:42;;;;;;;;;;;14.60;96.80;;;;;;5034349;28;19909;-77
2021/07/17 04:07:08;;;;;;;;;;;14.60;97.30;;;;;;5034169;28;19913;-76
2021/07/17 04:09:33;;;;;;;;;;;14.50;98.00;;;;;;5033627;28;19921;-77
2021/07/17 04:11:59;;;;;;;;;;;14.40;98.60;;;;;;5034023;28;19920;-77
2021/07/17 04:14:25;;;;;;;;;;;14.50;98.10;;;;;;5033954;28;19917;-77
2021/07/17 04:16:50;;;;;;;;;;;14.50;98.20;;;;;;5034001;28;19958;-77
2021/07/17 04:19:16;;;;;;;;;;;14.60;98.10;;;;;;5034010;28;19909;-77
2021/07/17 04:21:42;;;;;;;;;;;14.70;97.50;;;;;;5033956;28;19910;-76
2021/07/17 04:24:07;;;;;;;;;;;14.80;97.30;;;;;;5033849;28;20362;-77
2021/07/17 04:26:33;;;;;;;;;;;14.70;97.70;;;;;;5033948;28;19913;-77
2021/07/17 04:28:58;;;;;;;;;;;14.50;98.30;;;;;;5033826;28;19995;-77
2021/07/17 04:31:24;;;;;;;;;;;14.50;98.90;;;;;;5033793;28;19909;-77
2021/07/17 04:33:49;;;;;;;;;;;14.50;99.10;;;;;;5048992;28;19913;-78
2021/07/17 04:36:15;;;;;;;;;;;14.50;98.90;;;;;;5033767;28;19909;-77
2021/07/17 04:38:41;;;;;;;;;;;14.40;99.30;;;;;;5033722;28;19909;-76
2021/07/17 04:41:07;;;;;;;;;;;14.60;98.80;;;;;;5033642;28;19996;-78
2021/07/17 04:43:32;;;;;;;;;;;14.50;98.80;;;;;;5033681;28;19947;-78
2021/07/17 04:45:58;;;;;;;;;;;14.40;99.50;;;;;;5033982;28;19909;-78
2021/07/17 04:48:23;;;;;;;;;;;14.40;99.50;;;;;;5033639;28;19909;-78
2021/07/17 04:50:49;;;;;;;;;;;14.50;99.50;;;;;;5033619;28;19916;-77
2021/07/17 04:53:15;;;;;;;;;;;14.50;99.60;;;;;;5033328;28;19913;-77
2021/07/17 04:55:40;;;;;;;;;;;14.60;99.30;;;;;;5038124;28;19916;-76
2021/07/17 04:58:06;;;;;;;;;;;14.60;99.30;;;;;;5037833;28;20358;-76
2021/07/17 05:00:31;;;;;;;;;;;14.70;99.20;;;;;;5037607;28;19913;-78
2021/07/17 05:02:57;;;;;;;;;;;14.70;99.20;;;;;;5052956;28;19909;-77
2021/07/17 05:05:23;;;;;;;;;;;14.70;99.40;;;;;;5037547;28;20289;-78
2021/07/17 05:07:50;;;;;;;;;;;14.90;99.10;;;;;;5037477;28;19921;-78
2021/07/17 05:10:16;;;;;;;;;;;14.90;99.30;;;;;;5037711;28;19909;-77
2021/07/17 05:12:43;;;;;;;;;;;14.80;99.50;;;;;;5037466;28;19963;-76
2021/07/17 05:15:09;;;;;;;;;;;14.90;99.30;;;;;;5037270;28;20016;-76
2021/07/17 05:17:34;;;;;;;;;;;14.90;99.40;;;;;;5037307;28;19910;-79
2021/07/17 05:20:00;;;;;;;;;;;14.80;99.50;;;;;;5037282;28;19909;-76
2021/07/17 05:22:26;;;;;;;;;;;14.80;99.80;;;;;;5037192;28;20293;-77
2021/07/17 05:24:51;;;;;;;;;;;14.90;99.90;;;;;;5037283;28;19960;-76
2021/07/17 05:27:17;;;;;;;;;;;15.00;99.70;;;;;;5037160;28;19916;-77
2021/07/17 05:29:43;;;;;;;;;;;15.30;98.90;;;;;;5037434;28;20417;-76
2021/07/17 05:32:08;;;;;;;;;;;15.50;98.40;;;;;;5037025;28;19916;-76
2021/07/17 05:34:34;;;;;;;;;;;15.50;98.30;;;;;;5036973;28;20377;-78
2021/07/17 05:37:00;;;;;;;;;;;15.60;98.20;;;;;;5036992;28;19909;-77
2021/07/17 05:39:25;;;;;;;;;;;15.60;98.10;;;;;;5036893;28;19909;-77
2021/07/17 05:41:51;;;;;;;;;;;15.80;97.90;;;;;;5037242;28;19967;-76
2021/07/17 05:44:16;;;;;;;;;;;15.80;97.80;;;;;;5037092;28;19941;-77
2021/07/17 05:46:42;;;;;;;;;;;16.00;97.50;;;;;;5036778;28;19936;-77
2021/07/17 05:49:07;;;;;;;;;;;15.90;98.00;;;;;;5036718;28;20008;-76
2021/07/17 05:51:33;;;;;;;;;;;16.00;97.90;;;;;;5036750;28;19917;-78
2021/07/17 05:53:59;;;;;;;;;;;16.00;98.10;;;;;;5036723;28;19913;-77
2021/07/17 05:56:24;;;;;;;;;;;16.10;98.20;;;;;;5037178;28;19952;-78
2021/07/17 05:58:50;;;;;;;;;;;16.20;98.10;;;;;;5036554;28;19944;-76
2021/07/17 06:01:15;;;;;;;;;;;16.30;97.90;;;;;;5036515;28;19947;-76
2021/07/17 06:03:43;;;;;;;;;;;16.30;98.30;;;;;;5036774;28;19971;-77
2021/07/17 06:06:09;;;;;;;;;;;16.40;98.30;;;;;;5051721;28;19909;-78
2021/07/17 06:08:35;;;;;;;;;;;16.50;98.00;;;;;;5036197;28;19960;-76
2021/07/17 06:11:01;;;;;;;;;;;16.50;98.00;;;;;;5036358;28;19909;-78
2021/07/17 06:13:26;;;;;;;;;;;16.40;98.30;;;;;;5036608;28;19917;-77
2021/07/17 06:15:52;;;;;;;;;;;16.50;98.10;;;;;;5036226;28;19916;-77
2021/07/17 06:18:18;;;;;;;;;;;16.60;98.10;;;;;;5036162;28;19910;-77
2021/07/17 06:20:43;;;;;;;;;;;16.80;97.60;;;;;;5036103;28;20393;-77
2021/07/17 06:23:09;;;;;;;;;;;16.80;97.60;;;;;;5035695;28;19909;-77
2021/07/17 06:25:34;;;;;;;;;;;16.90;97.40;;;;;;5036051;28;19915;-79
2021/07/17 06:28:00;;;;;;;;;;;16.90;97.50;;;;;;5035997;28;19910;-77
2021/07/17 06:30:26;;;;;;;;;;;17.00;97.20;;;;;;5035974;28;19959;-78
2021/07/17 06:32:51;;;;;;;;;;;17.10;96.80;;;;;;5036059;28;19909;-77
2021/07/17 06:35:17;;;;;;;;;;;17.20;96.40;;;;;;5035785;28;20289;-77
2021/07/17 06:37:42;;;;;;;;;;;17.20;96.20;;;;;;5036041;28;19920;-76
2021/07/17 06:40:12;;;;;;;;;;;17.30;96.10;;;;;;5035846;28;19911;-78
2021/07/17 06:42:42;;;;;;;;;;;17.40;96.30;;;;;;5035720;28;19909;-78
2021/07/17 06:45:08;;;;;;;;;;;17.40;96.00;;;;;;5036005;28;19909;-79
2021/07/17 06:47:34;;;;;;;;;;;17.50;95.90;;;;;;5035761;28;19909;-78
2021/07/17 06:49:59;;;;;;;;;;;17.50;95.50;;;;;;5035651;28;20008;-78
2021/07/17 06:52:25;;;;;;;;;;;17.50;95.70;;;;;;5035558;28;19909;-77
2021/07/17 06:54:50;;;;;;;;;;;17.60;95.40;;;;;;5035456;28;19917;-78
2021/07/17 06:57:16;;;;;;;;;;;17.90;94.60;;;;;;5035616;28;19909;-76
2021/07/17 06:59:41;;;;;;;;;;;17.90;94.00;;;;;;5035651;28;19959;-77
2021/07/17 07:02:07;;;;;;;;;;;18.00;94.10;;;;;;5035375;28;19909;-77
2021/07/17 07:04:33;;;;;;;;;;;18.10;94.20;;;;;;5035335;28;19992;-78
2021/07/17 07:06:58;;;;;;;;;;;18.00;93.60;;;;;;5035352;28;19978;-76
2021/07/17 07:09:24;;;;;;;;;;;18.20;93.30;;;;;;5033293;28;19990;-78
2021/07/17 07:11:49;;;;;;;;;;;18.30;93.10;;;;;;5035212;28;19909;-77
2021/07/17 07:14:15;;;;;;;;;;;18.40;92.70;;;;;;5035004;28;20288;-77
2021/07/17 07:16:41;;;;;;;;;;;18.50;92.00;;;;;;5033303;28;19916;-77
2021/07/17 07:19:06;;;;;;;;;;;18.60;91.70;;;;;;5035225;28;19917;-77
2021/07/17 07:21:32;;;;;;;;;;;18.60;91.90;;;;;;5035016;28;19909;-77
2021/07/17 07:23:57;;;;;;;;;;;18.70;91.40;;;;;;5034838;28;19913;-78
2021/07/17 07:26:23;;;;;;;;;;;18.70;91.20;;;;;;5034884;28;20373;-78
2021/07/17 07:28:48;;;;;;;;;;;18.70;91.10;;;;;;5034814;28;19996;-78
2021/07/17 07:31:14;;;;;;;;;;;18.80;90.70;;;;;;5035108;28;19931;-77
2021/07/17 07:33:40;;;;;;;;;;;18.90;90.10;;;;;;5034839;28;19913;-77
2021/07/17 07:36:05;;;;;;;;;;;19.10;89.70;;;;;;5034695;28;20377;-78
2021/07/17 07:38:31;;;;;;;;;;;19.50;88.00;;;;;;5034875;28;19909;-77
2021/07/17 07:40:56;;;;;;;;;;;20.50;83.40;;;;;;5034765;28;20370;-78
2021/07/17 07:43:22;;;;;;;;;;;21.60;81.10;;;;;;5034666;28;20004;-77
2021/07/17 07:45:48;;;;;;;;;;;22.50;75.70;;;;;;5034609;28;19909;-77
2021/07/17 07:48:14;;;;;;;;;;;23.50;71.40;;;;;;5034957;28;19909;-78
2021/07/17 07:50:40;;;;;;;;;;;24.30;68.50;;;;;;5049847;28;19963;-78
2021/07/17 07:53:05;;;;;;;;;;;25.50;63.20;;;;;;5034396;28;19909;-78
2021/07/17 07:55:31;;;;;;;;;;;25.10;61.50;;;;;;5034281;28;19920;-78
2021/07/17 07:57:56;;;;;;;;;;;25.70;58.80;;;;;;5049673;28;20331;-77
2021/07/17 08:00:22;;;;;;;;;;;26.40;57.30;;;;;;5034311;28;19920;-77
2021/07/17 08:02:48;;;;;;;;;;;26.80;56.00;;;;;;5034443;28;19909;-78
2021/07/17 08:05:13;;;;;;;;;;;27.10;55.00;;;;;;5034332;28;19932;-78
2021/07/17 08:07:39;;;;;;;;;;;27.40;52.60;;;;;;5034054;28;20009;-77
2021/07/17 08:10:05;;;;;;;;;;;27.50;52.00;;;;;;5049105;28;20400;-79
2021/07/17 08:12:30;;;;;;;;;;;27.00;52.60;;;;;;5034030;28;19956;-77
2021/07/17 08:14:56;;;;;;;;;;;27.10;53.10;;;;;;5034148;28;19917;-78
2021/07/17 08:17:22;;;;;;;;;;;27.20;50.90;;;;;;5034137;28;19909;-79
2021/07/17 08:19:47;;;;;;;;;;;27.40;51.10;;;;;;5034077;28;19916;-78
2021/07/17 08:22:13;;;;;;;;;;;27.60;50.50;;;;;;5034223;28;20268;-78
2021/07/17 08:24:38;;;;;;;;;;;27.40;49.10;;;;;;5032551;28;19913;-80
2021/07/17 08:27:05;;;;;;;;;;;27.80;49.20;;;;;;5032265;28;19909;-77
2021/07/17 08:29:31;;;;;;;;;;;27.80;49.10;;;;;;5033416;28;20011;-78
2021/07/17 08:31:57;;;;;;;;;;;27.80;49.60;;;;;;5033747;28;20403;-76
2021/07/17 08:34:22;;;;;;;;;;;28.20;48.70;;;;;;5018223;28;20012;-80
2021/07/17 08:36:48;;;;;;;;;;;27.60;50.50;;;;;;5033046;28;19909;-77
2021/07/17 08:39:14;;;;;;;;;;;27.60;50.90;;;;;;5033452;28;19958;-77
2021/07/17 08:41:42;;;;;;;;;;;28.80;47.80;;;;;;5033085;28;19916;-80
2021/07/17 08:44:09;;;;;;;;;;;28.20;48.10;;;;;;5032925;28;19909;-77
2021/07/17 08:46:36;;;;;;;;;;;28.10;48.50;;;;;;5032813;28;19915;-79
2021/07/17 08:49:02;;;;;;;;;;;28.30;48.30;;;;;;5032088;28;20416;-77
2021/07/17 08:51:28;;;;;;;;;;;28.80;46.90;;;;;;5033299;28;19912;-78
2021/07/17 08:53:54;;;;;;;;;;;29.00;44.80;;;;;;5048150;28;20016;-77
2021/07/17 08:56:20;;;;;;;;;;;29.10;44.50;;;;;;5032855;28;19909;-77
2021/07/17 08:58:45;;;;;;;;;;;28.80;46.20;;;;;;5033034;28;19917;-79
2021/07/17 09:01:15;;;;;;;;;;;28.70;46.20;;;;;;5033217;28;19916;-78
2021/07/17 09:03:41;;;;;;;;;;;28.90;44.60;;;;;;5032867;28;20443;-78
2021/07/17 09:06:06;;;;;;;;;;;30.10;42.90;;;;;;5033068;28;20004;-77
2021/07/17 09:08:32;;;;;;;;;;;30.10;41.20;;;;;;5032874;28;19961;-78
2021/07/17 09:10:57;;;;;;;;;;;29.30;42.70;;;;;;5032944;28;19994;-78
2021/07/17 09:13:24;;;;;;;;;;;29.50;41.10;;;;;;5032405;28;19917;-77
2021/07/17 09:15:49;;;;;;;;;;;29.60;42.00;;;;;;5032914;28;19909;-77
2021/07/17 09:18:23;;;;;;;;;;;29.90;41.20;;;;;;5032991;28;20374;-77
2021/07/17 09:21:05;;;;;;;;;;;29.90;40.90;;;;;;5032814;28;19916;-77
2021/07/17 09:23:35;;;;;;;;;;;29.70;42.10;;;;;;5032209;28;19909;-78
2021/07/17 09:26:07;;;;;;;;;;;30.10;42.60;;;;;;5032768;28;19913;-78
2021/07/17 09:28:33;;;;;;;;;;;30.20;41.90;;;;;;5032814;28;19913;-78
2021/07/17 09:30:59;;;;;;;;;;;30.70;40.00;;;;;;5033077;28;19932;-77
2021/07/17 09:33:26;;;;;;;;;;;30.60;40.30;;;;;;5013073;28;20384;-78
2021/07/17 09:35:52;;;;;;;;;;;30.50;41.10;;;;;;5032522;28;19916;-78
2021/07/17 09:38:19;;;;;;;;;;;30.70;42.00;;;;;;5032910;28;19909;-79
2021/07/17 09:41:04;;;;;;;;;;;31.20;41.00;;;;;;5036129;28;19956;-78
2021/07/17 09:43:30;;;;;;;;;;;31.50;40.40;;;;;;5036248;28;20008;-77
2021/07/17 09:45:56;;;;;;;;;;;32.40;38.70;;;;;;5036294;28;19932;-78
2021/07/17 09:48:26;;;;;;;;;;;32.40;38.40;;;;;;5036497;28;19932;-79
2021/07/17 09:50:53;;;;;;;;;;;32.10;37.90;;;;;;5036369;28;19913;-77
2021/07/17 09:53:38;;;;;;;;;;;31.90;39.40;;;;;;5035967;28;19963;-77
2021/07/17 09:56:07;;;;;;;;;;;31.60;40.20;;;;;;5036352;28;19967;-78
2021/07/17 09:58:33;;;;;;;;;;;31.80;41.10;;;;;;5036060;28;20074;-79
2021/07/17 10:01:11;;;;;;;;;;;31.80;40.50;;;;;;5036242;28;19976;-77
2021/07/17 10:03:37;;;;;;;;;;;33.20;39.00;;;;;;5035841;28;19909;-77
2021/07/17 10:06:02;;;;;;;;;;;33.00;37.80;;;;;;5035900;28;19967;-77
2021/07/17 10:08:32;;;;;;;;;;;32.70;38.50;;;;;;5035904;28;20015;-77
2021/07/17 10:11:14;;;;;;;;;;;32.90;38.10;;;;;;5035812;28;19916;-79
2021/07/17 10:13:40;;;;;;;;;;;32.90;38.70;;;;;;5035699;28;19913;-77
2021/07/17 10:16:21;;;;;;;;;;;33.00;38.50;;;;;;5035908;28;19916;-78
2021/07/17 10:18:47;;;;;;;;;;;33.30;38.80;;;;;;5035783;28;20009;-78
2021/07/17 10:21:13;;;;;;;;;;;33.50;38.30;;;;;;5034427;28;20305;-78
2021/07/17 10:23:39;;;;;;;;;;;33.70;38.60;;;;;;5035092;28;19917;-79
2021/07/17 10:26:06;;;;;;;;;;;34.50;36.50;;;;;;5035749;28;19909;-78
2021/07/17 10:28:31;;;;;;;;;;;34.70;36.60;;;;;;5035629;28;19916;-79
2021/07/17 10:31:01;;;;;;;;;;;35.40;36.60;;;;;;5035577;28;20365;-78
2021/07/17 10:33:28;;;;;;;;;;;35.60;35.90;;;;;;5035611;28;19931;-78
2021/07/17 10:35:56;;;;;;;;;;;35.60;35.80;;;;;;5035786;28;19909;-77
2021/07/17 10:38:22;;;;;;;;;;;35.30;36.50;;;;;;5033728;28;19910;-79
2021/07/17 10:40:48;;;;;;;;;;;36.30;35.20;;;;;;5035746;28;19909;-79
2021/07/17 10:43:14;;;;;;;;;;;35.40;35.50;;;;;;5035748;28;19909;-77
2021/07/17 10:45:44;;;;;;;;;;;35.60;36.00;;;;;;5035775;28;20448;-78
2021/07/17 10:48:28;;;;;;;;;;;36.10;36.20;;;;;;5035759;28;19910;-80
2021/07/17 10:50:54;;;;;;;;;;;36.80;34.10;;;;;;5033420;28;19920;-78
2021/07/17 10:53:39;;;;;;;;;;;36.40;35.00;;;;;;5035480;28;19910;-75
2021/07/17 10:56:24;;;;;;;;;;;36.70;34.80;;;;;;5035532;28;19952;-77
2021/07/17 10:58:50;;;;;;;;;;;36.70;34.30;;;;;;5034715;28;19909;-77
2021/07/17 11:01:16;;;;;;;;;;;36.50;34.10;;;;;;5035536;28;20000;-77
2021/07/17 11:03:41;;;;;;;;;;;37.20;34.10;;;;;;5035432;28;20329;-76
2021/07/17 11:06:25;;;;;;;;;;;37.40;34.20;;;;;;5035250;28;20278;-76
2021/07/17 11:08:52;;;;;;;;;;;38.00;33.30;;;;;;5035094;28;19925;-76
2021/07/17 11:11:37;;;;;;;;;;;37.80;33.70;;;;;;5035206;28;19951;-75
2021/07/17 11:14:05;;;;;;;;;;;38.40;33.70;;;;;;5035222;28;19913;-76
2021/07/17 11:16:41;;;;;;;;;;;38.40;34.00;;;;;;5035033;28;20391;-75
2021/07/17 11:19:38;;;;;;;;;;;38.70;32.70;;;;;;5035044;28;19940;-76
2021/07/17 11:22:13;;;;;;;;;;;39.10;32.20;;;;;;5033586;28;19909;-75
2021/07/17 11:24:40;;;;;;;;;;;38.80;32.40;;;;;;5034909;28;19967;-76
2021/07/17 11:27:09;;;;;;;;;;;38.60;33.10;;;;;;5033637;28;19910;-76
2021/07/17 11:29:38;;;;;;;;;;;38.20;33.40;;;;;;5034834;28;20339;-75
2021/07/17 11:32:08;;;;;;;;;;;38.30;33.30;;;;;;5034781;28;20373;-76
2021/07/17 11:34:35;;;;;;;;;;;37.40;34.40;;;;;;5033452;28;19939;-74
2021/07/17 11:37:06;;;;;;;;;;;37.30;34.60;;;;;;5034991;28;19909;-77
2021/07/17 11:39:33;;;;;;;;;;;37.70;35.20;;;;;;5034791;28;19909;-76
2021/07/17 11:42:00;;;;;;;;;;;37.90;34.80;;;;;;5034808;28;19909;-77
2021/07/17 11:44:29;;;;;;;;;;;37.50;33.10;;;;;;5034918;28;19909;-77
2021/07/17 11:46:59;;;;;;;;;;;38.40;32.80;;;;;;5034504;28;20401;-75
2021/07/17 11:49:26;;;;;;;;;;;37.90;34.30;;;;;;5033193;28;20367;-77
2021/07/17 11:51:53;;;;;;;;;;;37.50;34.80;;;;;;5034518;28;20293;-76
2021/07/17 11:54:28;;;;;;;;;;;38.00;34.40;;;;;;5033047;28;19913;-75
2021/07/17 11:57:05;;;;;;;;;;;38.40;33.30;;;;;;5034554;28;19913;-76
2021/07/17 11:59:31;;;;;;;;;;;39.00;33.00;;;;;;5034322;28;19910;-74
2021/07/17 12:02:00;;;;;;;;;;;38.90;32.20;;;;;;5032878;28;20024;-76
2021/07/17 12:04:33;;;;;;;;;;;39.20;33.30;;;;;;5032952;28;19916;-77
2021/07/17 12:06:59;;;;;;;;;;;39.50;32.40;;;;;;5032924;28;19909;-76
2021/07/17 12:09:35;;;;;;;;;;;39.60;32.80;;;;;;5033755;28;20000;-75
2021/07/17 12:12:14;;;;;;;;;;;40.20;32.00;;;;;;5032754;28;19913;-76
2021/07/17 12:14:40;;;;;;;;;;;39.40;31.90;;;;;;5033845;28;19913;-74
2021/07/17 12:17:06;;;;;;;;;;;39.10;33.10;;;;;;5033964;28;19932;-75
2021/07/17 12:19:31;;;;;;;;;;;38.70;32.60;;;;;;5033925;28;20286;-74
2021/07/17 12:21:58;;;;;;;;;;;39.30;33.00;;;;;;5033843;28;19992;-77
2021/07/17 12:24:24;;;;;;;;;;;37.90;33.80;;;;;;5033774;28;20389;-76
2021/07/17 12:26:50;;;;;;;;;;;39.20;32.90;;;;;;5032475;28;20035;-77
2021/07/17 12:29:16;;;;;;;;;;;39.80;33.00;;;;;;5033821;28;19909;-77
2021/07/17 12:31:58;;;;;;;;;;;39.10;32.90;;;;;;5033670;28;20391;-75
2021/07/17 12:34:23;;;;;;;;;;;39.10;33.00;;;;;;5033618;28;20300;-76
2021/07/17 12:36:49;;;;;;;;;;;38.90;32.50;;;;;;5032402;28;19910;-75
2021/07/17 12:39:18;;;;;;;;;;;38.80;32.50;;;;;;5033657;28;19913;-76
2021/07/17 12:41:44;;;;;;;;;;;38.90;33.20;;;;;;5033551;28;19968;-78
2021/07/17 12:44:14;;;;;;;;;;;39.20;31.70;;;;;;5032300;28;20320;-74
2021/07/17 12:46:40;;;;;;;;;;;38.90;31.30;;;;;;5033864;28;19909;-76
2021/07/17 12:49:16;;;;;;;;;;;38.50;32.90;;;;;;5033504;28;19915;-75
2021/07/17 12:51:43;;;;;;;;;;;38.20;34.80;;;;;;5032192;28;20275;-74
2021/07/17 12:54:13;;;;;;;;;;;38.30;33.50;;;;;;5033354;28;19913;-75
2021/07/17 12:56:44;;;;;;;;;;;38.50;33.30;;;;;;5033572;28;19932;-76
2021/07/17 12:59:11;;;;;;;;;;;38.60;32.90;;;;;;5033592;28;20281;-75
2021/07/17 13:01:41;;;;;;;;;;;38.80;33.30;;;;;;5032134;28;19909;-76
2021/07/17 13:04:09;;;;;;;;;;;39.10;33.10;;;;;;5033824;28;19967;-76
2021/07/17 13:06:34;;;;;;;;;;;38.90;32.10;;;;;;5033343;28;19909;-75
2021/07/17 13:09:01;;;;;;;;;;;39.40;32.40;;;;;;5033101;28;20063;-74
2021/07/17 13:11:27;;;;;;;;;;;38.80;33.10;;;;;;5033285;28;19943;-78
2021/07/17 13:13:54;;;;;;;;;;;38.70;33.20;;;;;;5033791;28;19913;-76
2021/07/17 13:16:27;;;;;;;;;;;38.90;32.80;;;;;;5037273;28;19909;-75
2021/07/17 13:18:53;;;;;;;;;;;38.80;33.50;;;;;;5037208;28;19945;-75
2021/07/17 13:21:19;;;;;;;;;;;38.70;33.00;;;;;;5037323;28;20012;-74
2021/07/17 13:23:47;;;;;;;;;;;38.70;32.60;;;;;;5037078;28;19944;-75
2021/07/17 13:26:19;;;;;;;;;;;39.20;31.50;;;;;;5037150;28;19913;-77
2021/07/17 13:28:45;;;;;;;;;;;39.40;30.90;;;;;;5037010;28;19916;-75
2021/07/17 13:31:14;;;;;;;;;;;38.60;33.10;;;;;;5037165;28;19909;-77
2021/07/17 13:33:40;;;;;;;;;;;38.50;33.30;;;;;;5035595;28;19996;-76
2021/07/17 13:36:06;;;;;;;;;;;38.30;33.00;;;;;;5035671;28;20003;-76
2021/07/17 13:38:33;;;;;;;;;;;38.20;33.30;;;;;;5035564;28;19913;-76
2021/07/17 13:41:06;;;;;;;;;;;38.20;33.20;;;;;;5035566;28;19916;-76
2021/07/17 13:43:32;;;;;;;;;;;38.20;32.50;;;;;;5037065;28;19909;-75
2021/07/17 13:46:02;;;;;;;;;;;38.60;33.60;;;;;;5036794;28;19909;-76
2021/07/17 13:48:27;;;;;;;;;;;38.00;33.60;;;;;;5037099;28;19909;-76
2021/07/17 13:51:02;;;;;;;;;;;37.40;34.40;;;;;;5036643;28;19913;-76
2021/07/17 13:53:28;;;;;;;;;;;37.60;34.70;;;;;;5036834;28;19952;-75
2021/07/17 13:56:03;;;;;;;;;;;38.20;33.50;;;;;;5036514;28;19956;-75
2021/07/17 13:58:28;;;;;;;;;;;38.10;33.10;;;;;;5036597;28;19909;-75
2021/07/17 14:00:55;;;;;;;;;;;38.00;34.50;;;;;;5036405;28;19909;-75
2021/07/17 14:03:22;;;;;;;;;;;38.20;34.40;;;;;;5036700;28;20416;-77
2021/07/17 14:05:58;;;;;;;;;;;39.10;33.10;;;;;;5036358;28;19916;-78
2021/07/17 14:08:24;;;;;;;;;;;38.30;34.00;;;;;;5036020;28;19925;-77
2021/07/17 14:10:50;;;;;;;;;;;38.40;33.20;;;;;;5036419;28;19916;-74
2021/07/17 14:13:15;;;;;;;;;;;38.70;34.00;;;;;;5034979;28;19913;-75
2021/07/17 14:15:41;;;;;;;;;;;38.70;35.50;;;;;;5036122;28;20395;-76